Everhartville, Pennsylvania
Current Conditions -  °F | °C
As of 1:56 PM on Tuesday 21 Oct 2014 (Local Time) from KCXY Reporting Station
Overcast Overcast  
Wind Chill: 62°   Ceiling: 5000
Heat Index: 62°   Visibility: 10mi
Dew Point: 49°   Wind: 5mph
Humidity: 62%   Direction: 350°N
Pressure: 29.84"   Gusts: NA
Location:  40.4932°N, 77.217°W
Report Text: KCXY 211756Z 35004KT 10SM SCT040 OVC050 17/09 A2984 RMK AO2 SLP106 T01670094 10172 20106 58013
Loading
Personal Weather Stations






























Interactive Weather Map
Tropical Storm Tracking
New forecast layout! Learn more

10-Day Weather Forecast

Advertisements
Track Severe Weather on mobile